Time;durP1;ratioP1;P1;durP2;ratioP2;P2;SDS_P1;SDS_P2;PMS_P1;PMS_P2;Temp;Humidity;BMP_temperature;BMP_pressure;BME280_temperature;BME280_humidity;BME280_pressure;Samples;Min_cycle;Max_cycle;Signal;HPM_P1;HPM_P2
2024/01/16 00:03:10;;;;;;;53.58;29.02;;;;;;;;;;12914206;22;20501;-82
2024/01/16 00:08:14;;;;;;;53.77;29.60;;;;;;;;;;12912661;22;20360;-81
2024/01/16 00:13:16;;;;;;;51.70;28.43;;;;;;;;;;12915311;22;20446;-81
2024/01/16 00:18:19;;;;;;;55.20;28.60;;;;;;;;;;12914348;22;20364;-81
2024/01/16 00:23:22;;;;;;;50.67;27.08;;;;;;;;;;12914476;22;20368;-81
2024/01/16 00:28:25;;;;;;;50.20;26.10;;;;;;;;;;12913163;22;20426;-82
2024/01/16 00:33:27;;;;;;;49.65;26.15;;;;;;;;;;12914739;22;20721;-81
2024/01/16 00:38:33;;;;;;;50.72;26.38;;;;;;;;;;12914261;22;20426;-82
2024/01/16 00:43:36;;;;;;;48.20;25.58;;;;;;;;;;12914182;22;20434;-81
2024/01/16 00:48:38;;;;;;;47.10;25.23;;;;;;;;;;12914986;22;20430;-81
2024/01/16 00:53:42;;;;;;;44.85;24.83;;;;;;;;;;12913804;22;20442;-82
2024/01/16 00:58:45;;;;;;;47.97;25.17;;;;;;;;;;12913606;22;20368;-81
2024/01/16 01:03:47;;;;;;;45.33;25.50;;;;;;;;;;12914248;22;20377;-82
2024/01/16 01:08:51;;;;;;;47.83;25.40;;;;;;;;;;12908956;22;20422;-81
2024/01/16 01:13:53;;;;;;;45.17;25.83;;;;;;;;;;12912380;22;20412;-81
2024/01/16 01:18:56;;;;;;;50.83;25.13;;;;;;;;;;12911316;22;20407;-84
2024/01/16 01:23:59;;;;;;;43.70;23.92;;;;;;;;;;12912873;22;20697;-82
2024/01/16 01:29:03;;;;;;;46.20;25.17;;;;;;;;;;12912072;22;20432;-81
2024/01/16 01:34:05;;;;;;;43.70;24.10;;;;;;;;;;12910848;22;20384;-81
2024/01/16 01:39:09;;;;;;;41.10;22.75;;;;;;;;;;12911494;22;20364;-81
2024/01/16 01:44:15;;;;;;;41.45;23.58;;;;;;;;;;12911659;22;20373;-82
2024/01/16 01:49:18;;;;;;;41.90;21.92;;;;;;;;;;12912416;22;20356;-81
2024/01/16 01:54:22;;;;;;;39.80;20.63;;;;;;;;;;12910009;22;20476;-81
2024/01/16 01:59:26;;;;;;;36.75;20.25;;;;;;;;;;12910039;22;20403;-81
2024/01/16 02:04:30;;;;;;;39.13;18.95;;;;;;;;;;12910357;22;20761;-81
2024/01/16 02:09:34;;;;;;;34.28;18.98;;;;;;;;;;12911100;22;20365;-81
2024/01/16 02:14:36;;;;;;;32.70;17.40;;;;;;;;;;12911507;22;20450;-82
2024/01/16 02:19:38;;;;;;;29.93;17.03;;;;;;;;;;12908943;22;20385;-81
2024/01/16 02:24:42;;;;;;;32.38;17.20;;;;;;;;;;12902837;22;20372;-82
2024/01/16 02:29:44;;;;;;;28.33;16.27;;;;;;;;;;12905191;22;20372;-82
2024/01/16 02:34:47;;;;;;;33.53;16.88;;;;;;;;;;12910857;22;20764;-81
2024/01/16 02:39:50;;;;;;;30.93;15.50;;;;;;;;;;12910740;22;20426;-81
2024/01/16 02:44:52;;;;;;;29.63;15.35;;;;;;;;;;12913983;22;20422;-81
2024/01/16 02:49:55;;;;;;;27.60;16.07;;;;;;;;;;12914446;22;20683;-81
2024/01/16 02:54:58;;;;;;;30.75;15.98;;;;;;;;;;12916175;22;20414;-81
2024/01/16 03:00:01;;;;;;;29.75;15.00;;;;;;;;;;12917003;22;20369;-81
2024/01/16 03:05:04;;;;;;;27.10;15.52;;;;;;;;;;12914827;22;20474;-81
2024/01/16 03:10:09;;;;;;;29.17;15.50;;;;;;;;;;12917695;22;20415;-81
2024/01/16 03:15:11;;;;;;;27.10;15.00;;;;;;;;;;12915576;22;20388;-80
2024/01/16 03:20:14;;;;;;;28.02;15.02;;;;;;;;;;12917507;22;20369;-81
2024/01/16 03:25:18;;;;;;;32.63;15.68;;;;;;;;;;12916920;22;20685;-81
2024/01/16 03:30:21;;;;;;;26.83;15.75;;;;;;;;;;12917277;22;20387;-83
2024/01/16 03:35:24;;;;;;;29.15;15.10;;;;;;;;;;12917098;22;20752;-80
2024/01/16 03:40:27;;;;;;;27.17;15.05;;;;;;;;;;12916754;22;20418;-81
2024/01/16 03:45:30;;;;;;;26.55;15.20;;;;;;;;;;12917146;22;20399;-81
2024/01/16 03:50:33;;;;;;;26.17;15.40;;;;;;;;;;12915985;22;20906;-83
2024/01/16 03:55:37;;;;;;;25.70;15.27;;;;;;;;;;12913808;22;20446;-81
2024/01/16 04:00:39;;;;;;;26.77;14.45;;;;;;;;;;12915850;22;20364;-81
2024/01/16 04:05:42;;;;;;;28.15;13.90;;;;;;;;;;12916620;22;20388;-82
2024/01/16 04:10:46;;;;;;;29.30;14.75;;;;;;;;;;12915849;22;20406;-82
2024/01/16 04:15:48;;;;;;;23.90;13.60;;;;;;;;;;12913059;23;20450;-83
2024/01/16 04:20:51;;;;;;;26.08;14.25;;;;;;;;;;12916666;22;20430;-83
2024/01/16 04:25:54;;;;;;;25.40;14.32;;;;;;;;;;12915341;22;20368;-81
2024/01/16 04:30:57;;;;;;;24.65;13.68;;;;;;;;;;12916363;22;20371;-83
2024/01/16 04:35:59;;;;;;;26.50;13.98;;;;;;;;;;12916214;22;20384;-81
2024/01/16 04:41:04;;;;;;;24.38;13.43;;;;;;;;;;12914930;22;20438;-83
2024/01/16 04:46:06;;;;;;;24.83;13.53;;;;;;;;;;12915175;22;20376;-81
2024/01/16 04:51:08;;;;;;;28.98;15.23;;;;;;;;;;12914564;22;20410;-82
2024/01/16 04:56:12;;;;;;;25.73;14.33;;;;;;;;;;12914627;22;20843;-83
2024/01/16 05:01:14;;;;;;;27.30;14.37;;;;;;;;;;12914455;22;20372;-82
2024/01/16 05:06:17;;;;;;;36.08;17.90;;;;;;;;;;12914876;22;20380;-81
2024/01/16 05:11:21;;;;;;;34.53;17.40;;;;;;;;;;12914826;22;20368;-83
2024/01/16 05:16:23;;;;;;;30.67;14.77;;;;;;;;;;12913931;22;20673;-83
2024/01/16 05:21:25;;;;;;;30.42;15.40;;;;;;;;;;12914313;22;20446;-83
2024/01/16 05:26:29;;;;;;;22.52;11.90;;;;;;;;;;12913867;22;20426;-84
2024/01/16 05:31:31;;;;;;;27.43;13.70;;;;;;;;;;12914156;22;20372;-83
2024/01/16 05:36:34;;;;;;;21.05;11.38;;;;;;;;;;12914295;22;20740;-81
2024/01/16 05:41:37;;;;;;;28.90;13.43;;;;;;;;;;12914162;22;20368;-83
2024/01/16 05:46:40;;;;;;;22.70;12.37;;;;;;;;;;12913753;22;20832;-83
2024/01/16 05:51:42;;;;;;;23.38;13.35;;;;;;;;;;12908803;22;20364;-83
2024/01/16 05:56:46;;;;;;;21.58;12.52;;;;;;;;;;12910986;22;20438;-81
2024/01/16 06:01:49;;;;;;;20.60;11.57;;;;;;;;;;12907532;22;20422;-81
2024/01/16 06:06:51;;;;;;;18.27;11.47;;;;;;;;;;12913974;22;20395;-81
2024/01/16 06:11:54;;;;;;;21.58;11.15;;;;;;;;;;12916178;22;20411;-82
2024/01/16 06:16:57;;;;;;;19.53;11.00;;;;;;;;;;12912314;22;20801;-80
2024/01/16 06:21:59;;;;;;;19.15;10.77;;;;;;;;;;12914672;22;20369;-81
2024/01/16 06:27:04;;;;;;;22.23;11.85;;;;;;;;;;12914913;22;20893;-82
2024/01/16 06:32:07;;;;;;;23.35;11.13;;;;;;;;;;12914352;22;20380;-80
2024/01/16 06:37:10;;;;;;;22.53;11.77;;;;;;;;;;12910209;22;20368;-81
2024/01/16 06:42:14;;;;;;;26.57;11.80;;;;;;;;;;12910947;22;20364;-81
2024/01/16 06:47:16;;;;;;;21.70;10.73;;;;;;;;;;12894907;22;20752;-81
2024/01/16 06:52:18;;;;;;;19.93;11.30;;;;;;;;;;12894971;22;20380;-80
2024/01/16 06:57:22;;;;;;;21.60;10.88;;;;;;;;;;12894636;22;20752;-81
2024/01/16 07:02:26;;;;;;;17.05;10.23;;;;;;;;;;12893148;22;20442;-80
2024/01/16 07:07:28;;;;;;;17.20;9.53;;;;;;;;;;12891490;22;20894;-80
2024/01/16 07:12:32;;;;;;;16.00;9.18;;;;;;;;;;12895162;22;20414;-80
2024/01/16 07:17:34;;;;;;;16.88;9.68;;;;;;;;;;12896122;22;20438;-81
2024/01/16 07:22:39;;;;;;;16.93;10.03;;;;;;;;;;12894532;22;20372;-81
2024/01/16 07:27:45;;;;;;;19.65;10.18;;;;;;;;;;12893801;22;20376;-81
2024/01/16 07:32:48;;;;;;;17.90;10.35;;;;;;;;;;12894511;22;20713;-81
2024/01/16 07:37:50;;;;;;;17.73;9.57;;;;;;;;;;12895559;22;20365;-81
2024/01/16 07:42:54;;;;;;;16.60;9.23;;;;;;;;;;12899188;22;20441;-81
2024/01/16 07:47:56;;;;;;;15.38;8.75;;;;;;;;;;12900137;22;20368;-82
2024/01/16 07:52:58;;;;;;;17.40;9.20;;;;;;;;;;12898424;22;21321;-79
2024/01/16 07:58:03;;;;;;;15.07;8.40;;;;;;;;;;12894482;22;20376;-80
2024/01/16 08:03:08;;;;;;;17.15;9.13;;;;;;;;;;12893721;22;20369;-79
2024/01/16 08:08:11;;;;;;;15.00;8.93;;;;;;;;;;12898294;22;20852;-79
2024/01/16 08:13:15;;;;;;;18.40;9.57;;;;;;;;;;12895829;22;20384;-80
2024/01/16 08:18:18;;;;;;;20.08;9.20;;;;;;;;;;12897471;22;20445;-80
2024/01/16 08:23:21;;;;;;;18.33;10.30;;;;;;;;;;12893273;22;21177;-79
2024/01/16 08:28:25;;;;;;;17.17;9.93;;;;;;;;;;12899171;22;20422;-79
2024/01/16 08:33:28;;;;;;;17.25;9.38;;;;;;;;;;12897587;22;20389;-79
2024/01/16 08:38:30;;;;;;;16.17;8.15;;;;;;;;;;12898050;22;20426;-80
2024/01/16 08:43:34;;;;;;;15.33;8.43;;;;;;;;;;12893371;22;20394;-80
2024/01/16 08:48:36;;;;;;;18.05;8.98;;;;;;;;;;12896244;22;20368;-80
2024/01/16 08:53:38;;;;;;;18.63;10.20;;;;;;;;;;12895626;22;20388;-80
2024/01/16 08:58:42;;;;;;;30.52;15.30;;;;;;;;;;12894396;22;20423;-80
2024/01/16 09:03:44;;;;;;;35.57;16.53;;;;;;;;;;12894906;22;20701;-80
2024/01/16 09:08:47;;;;;;;35.45;17.35;;;;;;;;;;12894616;22;20380;-79
2024/01/16 09:13:51;;;;;;;28.52;12.93;;;;;;;;;;12895121;22;20384;-80
2024/01/16 09:18:54;;;;;;;20.30;10.67;;;;;;;;;;12895811;22;20372;-80
2024/01/16 09:23:56;;;;;;;14.52;7.65;;;;;;;;;;12897222;22;20365;-80
2024/01/16 09:29:00;;;;;;;12.23;7.88;;;;;;;;;;12894402;22;20755;-82
2024/01/16 09:34:03;;;;;;;12.95;7.13;;;;;;;;;;12897355;22;20388;-80
2024/01/16 09:39:07;;;;;;;7.47;4.72;;;;;;;;;;12888374;22;20399;-79
2024/01/16 09:44:11;;;;;;;6.35;3.83;;;;;;;;;;12899437;22;20414;-81
2024/01/16 09:49:15;;;;;;;5.38;3.38;;;;;;;;;;12899872;22;20406;-83
2024/01/16 09:54:17;;;;;;;6.13;4.00;;;;;;;;;;12900762;22;21001;-80
2024/01/16 09:59:21;;;;;;;6.03;3.40;;;;;;;;;;12899344;22;20849;-83
2024/01/16 10:04:24;;;;;;;6.05;3.70;;;;;;;;;;12899934;22;20843;-83
2024/01/16 10:09:26;;;;;;;7.20;4.40;;;;;;;;;;12898518;22;20836;-83
2024/01/16 10:14:30;;;;;;;6.53;3.95;;;;;;;;;;12899237;22;20461;-82
2024/01/16 10:19:33;;;;;;;7.23;3.43;;;;;;;;;;12899815;22;20372;-83
2024/01/16 10:24:35;;;;;;;5.57;3.85;;;;;;;;;;12899259;22;20441;-80
2024/01/16 10:29:56;;;;;;;7.35;3.83;;;;;;;;;;12897003;22;20845;-81
2024/01/16 10:35:07;;;;;;;8.53;4.20;;;;;;;;;;12899933;22;20442;-80
2024/01/16 10:40:09;;;;;;;6.72;4.03;;;;;;;;;;12899999;22;20525;-80
2024/01/16 10:45:18;;;;;;;7.87;4.70;;;;;;;;;;12906689;22;20404;-83
2024/01/16 10:50:20;;;;;;;8.15;4.32;;;;;;;;;;12913871;22;20503;-80
2024/01/16 10:55:24;;;;;;;5.60;3.93;;;;;;;;;;12911630;22;20440;-82
2024/01/16 11:00:29;;;;;;;7.65;4.65;;;;;;;;;;12912146;22;20412;-82
2024/01/16 11:05:33;;;;;;;7.83;4.10;;;;;;;;;;12916292;22;20418;-82
2024/01/16 11:10:37;;;;;;;7.95;4.00;;;;;;;;;;12916993;22;20454;-82
2024/01/16 11:15:43;;;;;;;8.45;4.03;;;;;;;;;;12917197;22;20463;-82
2024/01/16 11:20:45;;;;;;;7.43;3.50;;;;;;;;;;12917362;22;20732;-81
2024/01/16 11:25:47;;;;;;;7.57;4.10;;;;;;;;;;12916191;22;20381;-82
2024/01/16 11:30:51;;;;;;;6.10;4.05;;;;;;;;;;12916725;22;20431;-81
2024/01/16 11:35:53;;;;;;;7.00;3.67;;;;;;;;;;12916290;22;20428;-81
2024/01/16 11:40:56;;;;;;;7.10;3.55;;;;;;;;;;12915588;22;20744;-81
2024/01/16 11:46:03;;;;;;;5.38;3.90;;;;;;;;;;12914355;23;22428;-82
2024/01/16 11:51:23;;;;;;;6.13;3.93;;;;;;;;;;12916544;22;20360;-82
2024/01/16 11:57:02;;;;;;;7.25;3.85;;;;;;;;;;12915726;22;20388;-82
2024/01/16 12:02:12;;;;;;;4.77;3.30;;;;;;;;;;12895941;23;20369;-82
2024/01/16 12:07:14;;;;;;;6.50;4.15;;;;;;;;;;12916876;22;20364;-81
2024/01/16 12:12:18;;;;;;;7.03;3.90;;;;;;;;;;12915552;22;20395;-81
2024/01/16 12:17:21;;;;;;;10.93;4.63;;;;;;;;;;12916299;22;20388;-81
2024/01/16 12:22:24;;;;;;;6.95;4.05;;;;;;;;;;12915167;22;20673;-82
2024/01/16 12:27:26;;;;;;;5.93;4.40;;;;;;;;;;12915332;22;20442;-82
2024/01/16 12:32:30;;;;;;;9.70;3.93;;;;;;;;;;12916098;22;20678;-81
2024/01/16 12:37:32;;;;;;;7.65;4.03;;;;;;;;;;12915099;22;20446;-81
2024/01/16 12:42:34;;;;;;;7.43;4.45;;;;;;;;;;12915025;22;20837;-82
2024/01/16 12:47:41;;;;;;;6.43;3.95;;;;;;;;;;12915194;22;20368;-81
2024/01/16 12:52:44;;;;;;;6.57;3.57;;;;;;;;;;12915169;22;20360;-82
2024/01/16 12:57:47;;;;;;;7.05;3.72;;;;;;;;;;12914433;22;20391;-81
2024/01/16 13:02:52;;;;;;;4.93;3.58;;;;;;;;;;12914468;22;20368;-82
2024/01/16 13:08:04;;;;;;;7.38;3.60;;;;;;;;;;12915003;22;20395;-82
2024/01/16 13:13:13;;;;;;;7.05;4.05;;;;;;;;;;12914056;22;20364;-81
2024/01/16 13:18:21;;;;;;;5.80;3.65;;;;;;;;;;12900724;22;20454;-80
2024/01/16 13:23:25;;;;;;;13.77;6.28;;;;;;;;;;12904337;22;20372;-81
2024/01/16 13:28:28;;;;;;;8.80;4.17;;;;;;;;;;12904104;22;20521;-81
2024/01/16 13:33:31;;;;;;;5.78;3.95;;;;;;;;;;12904888;22;20446;-81
2024/01/16 13:38:34;;;;;;;7.83;3.80;;;;;;;;;;12903786;22;20384;-81
2024/01/16 13:43:37;;;;;;;8.20;4.00;;;;;;;;;;12899695;22;20434;-80
2024/01/16 13:48:41;;;;;;;6.57;3.75;;;;;;;;;;12904532;22;20364;-81
2024/01/16 13:53:44;;;;;;;6.53;4.20;;;;;;;;;;12910999;22;20368;-82
2024/01/16 13:58:46;;;;;;;4.93;3.55;;;;;;;;;;12911235;22;20384;-81
2024/01/16 14:03:51;;;;;;;7.87;4.40;;;;;;;;;;12913443;22;20745;-81
2024/01/16 14:08:53;;;;;;;8.82;4.10;;;;;;;;;;12912313;22;20442;-81
2024/01/16 14:13:57;;;;;;;9.45;3.80;;;;;;;;;;12911062;22;20843;-81
2024/01/16 14:19:29;;;;;;;7.80;3.83;;;;;;;;;;12902566;22;20368;-81
2024/01/16 14:24:31;;;;;;;5.93;3.90;;;;;;;;;;12897361;22;20450;-81
2024/01/16 14:29:36;;;;;;;7.13;4.55;;;;;;;;;;12908593;22;20429;-81
2024/01/16 14:34:39;;;;;;;8.13;4.13;;;;;;;;;;12909034;22;20686;-81
2024/01/16 14:39:42;;;;;;;8.27;3.80;;;;;;;;;;12909487;22;20364;-81
2024/01/16 14:44:44;;;;;;;7.37;4.20;;;;;;;;;;12907440;22;20450;-81
2024/01/16 14:49:48;;;;;;;8.50;4.23;;;;;;;;;;12908758;22;20380;-81
2024/01/16 14:54:51;;;;;;;8.70;4.30;;;;;;;;;;12908602;22;20485;-80
2024/01/16 14:59:54;;;;;;;5.78;4.22;;;;;;;;;;12907428;22;20955;-80
2024/01/16 15:04:57;;;;;;;7.83;4.70;;;;;;;;;;12908064;22;20434;-81
2024/01/16 15:10:00;;;;;;;12.82;6.60;;;;;;;;;;12909229;22;20369;-81
2024/01/16 15:15:03;;;;;;;11.73;7.07;;;;;;;;;;12907105;22;20690;-81
2024/01/16 15:20:09;;;;;;;12.27;6.40;;;;;;;;;;12906134;22;20430;-80
2024/01/16 15:25:13;;;;;;;18.07;9.90;;;;;;;;;;12905731;22;20422;-81
2024/01/16 15:30:16;;;;;;;19.23;10.27;;;;;;;;;;12910378;22;20356;-81
2024/01/16 15:35:23;;;;;;;25.95;11.75;;;;;;;;;;12908743;22;20376;-80
2024/01/16 15:40:25;;;;;;;25.90;13.43;;;;;;;;;;12912861;22;20438;-81
2024/01/16 15:45:29;;;;;;;28.05;12.93;;;;;;;;;;12912659;22;20368;-80
2024/01/16 15:50:34;;;;;;;24.67;12.83;;;;;;;;;;12913385;22;20415;-81
2024/01/16 15:55:36;;;;;;;22.08;12.55;;;;;;;;;;12912764;22;20384;-81
2024/01/16 16:00:41;;;;;;;23.65;11.63;;;;;;;;;;12910923;22;20832;-79
2024/01/16 16:05:45;;;;;;;23.03;12.10;;;;;;;;;;12904787;22;20429;-81
2024/01/16 16:10:47;;;;;;;22.00;10.90;;;;;;;;;;12906689;22;20434;-80
2024/01/16 16:15:50;;;;;;;22.67;11.27;;;;;;;;;;12906566;23;20388;-82
2024/01/16 16:20:53;;;;;;;19.67;9.70;;;;;;;;;;12896919;22;20384;-83
2024/01/16 16:25:56;;;;;;;23.07;10.40;;;;;;;;;;12896119;22;20454;-83
2024/01/16 16:30:59;;;;;;;21.67;9.80;;;;;;;;;;12900544;22;20463;-81
2024/01/16 16:36:04;;;;;;;18.42;9.82;;;;;;;;;;12902128;22;20384;-81
2024/01/16 16:41:07;;;;;;;22.60;10.52;;;;;;;;;;12899750;22;20422;-82
2024/01/16 16:46:09;;;;;;;26.23;11.07;;;;;;;;;;12897864;22;20384;-83
2024/01/16 16:51:15;;;;;;;20.88;11.35;;;;;;;;;;12893800;22;20434;-82
2024/01/16 16:56:18;;;;;;;29.50;12.70;;;;;;;;;;12907511;22;20376;-84
2024/01/16 17:01:23;;;;;;;25.52;12.20;;;;;;;;;;12919214;22;20426;-84
2024/01/16 17:06:28;;;;;;;23.00;11.98;;;;;;;;;;12901381;22;20390;-84
2024/01/16 17:11:30;;;;;;;26.23;14.15;;;;;;;;;;12904583;22;20385;-83
2024/01/16 17:16:33;;;;;;;23.65;12.45;;;;;;;;;;12905192;22;20442;-83
2024/01/16 17:21:38;;;;;;;30.43;14.17;;;;;;;;;;12905290;22;20471;-83
2024/01/16 17:26:42;;;;;;;28.40;15.18;;;;;;;;;;12903627;22;20915;-83
2024/01/16 17:31:45;;;;;;;41.25;18.33;;;;;;;;;;12904935;22;20406;-83
2024/01/16 17:36:52;;;;;;;38.63;17.77;;;;;;;;;;12905623;22;20396;-84
2024/01/16 17:41:54;;;;;;;40.67;19.48;;;;;;;;;;12903386;22;20426;-83
2024/01/16 17:46:56;;;;;;;42.47;19.55;;;;;;;;;;12904276;22;20478;-84
2024/01/16 17:52:03;;;;;;;44.83;21.70;;;;;;;;;;12904862;22;20380;-83
2024/01/16 17:57:06;;;;;;;47.53;23.30;;;;;;;;;;12902947;22;20458;-83
2024/01/16 18:02:09;;;;;;;43.72;19.67;;;;;;;;;;12904769;22;20438;-82
2024/01/16 18:07:18;;;;;;;38.17;19.25;;;;;;;;;;12901891;22;20688;-82
2024/01/16 18:12:21;;;;;;;32.83;17.50;;;;;;;;;;12894637;22;20456;-80
2024/01/16 18:17:54;;;;;;;41.37;18.93;;;;;;;;;;12902551;22;20392;-80
2024/01/16 18:22:58;;;;;;;35.20;17.43;;;;;;;;;;12882559;22;20438;-80
2024/01/16 18:28:00;;;;;;;27.42;15.70;;;;;;;;;;12898524;22;20441;-82
2024/01/16 18:33:03;;;;;;;34.92;18.42;;;;;;;;;;12899466;22;20379;-80
2024/01/16 18:38:07;;;;;;;41.13;21.17;;;;;;;;;;12897555;22;20442;-82
2024/01/16 18:43:11;;;;;;;39.33;21.57;;;;;;;;;;12900582;22;20408;-81
2024/01/16 18:48:13;;;;;;;37.10;19.88;;;;;;;;;;12898093;22;20534;-82
2024/01/16 18:53:17;;;;;;;31.83;17.70;;;;;;;;;;12894090;22;21102;-82
2024/01/16 18:58:21;;;;;;;26.13;15.93;;;;;;;;;;12894583;22;20574;-81
2024/01/16 19:03:26;;;;;;;32.23;17.13;;;;;;;;;;12899594;22;20473;-81
2024/01/16 19:08:33;;;;;;;36.50;19.77;;;;;;;;;;12900613;22;20483;-81
2024/01/16 19:13:36;;;;;;;36.25;20.83;;;;;;;;;;12904491;22;20426;-85
2024/01/16 19:18:45;;;;;;;27.30;16.27;;;;;;;;;;12905981;22;20384;-85
2024/01/16 19:23:52;;;;;;;32.40;17.73;;;;;;;;;;12905423;22;20380;-85
2024/01/16 19:28:55;;;;;;;35.67;18.77;;;;;;;;;;12906346;22;20422;-84
2024/01/16 19:34:07;;;;;;;31.10;17.63;;;;;;;;;;12906228;22;20472;-84
2024/01/16 19:39:32;;;;;;;36.50;20.60;;;;;;;;;;12903090;22;20418;-84
2024/01/16 19:44:37;;;;;;;34.13;19.10;;;;;;;;;;12909246;22;20435;-84
2024/01/16 19:49:42;;;;;;;28.77;16.07;;;;;;;;;;12909386;22;20372;-83
2024/01/16 19:54:45;;;;;;;28.10;16.00;;;;;;;;;;12908928;22;20393;-74
2024/01/16 19:59:50;;;;;;;30.35;16.55;;;;;;;;;;12912542;22;20388;-82
2024/01/16 20:04:54;;;;;;;25.65;15.50;;;;;;;;;;12908154;22;20368;-82
2024/01/16 20:09:57;;;;;;;25.60;14.77;;;;;;;;;;12913594;22;20412;-82
2024/01/16 20:15:01;;;;;;;27.70;14.35;;;;;;;;;;12912243;22;20438;-83
2024/01/16 20:20:05;;;;;;;23.83;13.60;;;;;;;;;;12910188;22;20380;-82
2024/01/16 20:25:12;;;;;;;26.17;13.50;;;;;;;;;;12912392;22;20414;-83
2024/01/16 20:30:17;;;;;;;28.13;15.93;;;;;;;;;;12928043;23;20888;-83
2024/01/16 20:35:19;;;;;;;26.07;15.20;;;;;;;;;;12906114;22;20400;-83
2024/01/16 20:40:23;;;;;;;24.45;14.30;;;;;;;;;;12912062;22;20388;-83
2024/01/16 20:45:26;;;;;;;27.00;14.70;;;;;;;;;;12910581;22;20368;-83
2024/01/16 20:50:29;;;;;;;26.45;16.15;;;;;;;;;;12908976;22;20364;-83
2024/01/16 20:55:40;;;;;;;30.48;14.55;;;;;;;;;;12908982;22;20364;-83
2024/01/16 21:00:45;;;;;;;24.23;14.20;;;;;;;;;;12899067;22;20388;-83
2024/01/16 21:05:48;;;;;;;24.27;13.93;;;;;;;;;;12901355;22;20442;-82
2024/01/16 21:10:51;;;;;;;23.90;13.80;;;;;;;;;;12903560;22;20388;-82
2024/01/16 21:15:54;;;;;;;25.05;13.05;;;;;;;;;;12904328;22;20480;-83
2024/01/16 21:20:57;;;;;;;23.57;13.23;;;;;;;;;;12903513;22;20519;-82
2024/01/16 21:26:00;;;;;;;20.17;13.02;;;;;;;;;;12902385;22;20407;-82
2024/01/16 21:31:03;;;;;;;18.87;11.17;;;;;;;;;;12903874;22;20380;-81
2024/01/16 21:36:08;;;;;;;18.43;11.40;;;;;;;;;;12902174;22;20561;-82
2024/01/16 21:41:12;;;;;;;20.15;11.88;;;;;;;;;;12899097;22;20413;-82
2024/01/16 21:46:14;;;;;;;18.38;10.73;;;;;;;;;;12900840;22;20462;-81
2024/01/16 21:51:16;;;;;;;15.38;9.88;;;;;;;;;;12902577;22;20380;-82
2024/01/16 21:56:20;;;;;;;18.00;10.60;;;;;;;;;;12899601;22;20439;-82
2024/01/16 22:01:22;;;;;;;16.50;9.85;;;;;;;;;;12901049;22;20365;-82
2024/01/16 22:06:25;;;;;;;14.67;9.60;;;;;;;;;;12901275;22;20438;-82
2024/01/16 22:11:29;;;;;;;20.77;12.50;;;;;;;;;;12902908;22;20380;-82
2024/01/16 22:16:33;;;;;;;21.05;13.40;;;;;;;;;;12902856;22;20434;-83
2024/01/16 22:21:35;;;;;;;25.50;14.88;;;;;;;;;;12902766;22;20384;-82
2024/01/16 22:26:40;;;;;;;30.63;17.73;;;;;;;;;;12902266;22;20384;-83
2024/01/16 22:31:42;;;;;;;27.92;14.60;;;;;;;;;;12903172;22;20404;-82
2024/01/16 22:36:44;;;;;;;24.42;14.35;;;;;;;;;;12901576;22;20470;-82
2024/01/16 22:41:48;;;;;;;21.07;13.07;;;;;;;;;;12903130;22;20936;-81
2024/01/16 22:46:51;;;;;;;25.37;14.90;;;;;;;;;;12905921;22;20865;-83
2024/01/16 22:51:53;;;;;;;21.75;14.63;;;;;;;;;;12910715;22;20435;-83
2024/01/16 22:56:57;;;;;;;22.38;14.43;;;;;;;;;;12899561;22;20372;-83
2024/01/16 23:01:59;;;;;;;27.83;15.80;;;;;;;;;;12910724;22;20412;-82
2024/01/16 23:07:01;;;;;;;23.45;14.00;;;;;;;;;;12914485;22;20915;-83
2024/01/16 23:12:07;;;;;;;21.85;13.88;;;;;;;;;;12915881;22;20423;-82
2024/01/16 23:17:09;;;;;;;21.58;13.52;;;;;;;;;;12915955;22;21017;-83
2024/01/16 23:22:12;;;;;;;24.80;14.52;;;;;;;;;;12916200;22;20443;-83
2024/01/16 23:27:16;;;;;;;27.33;15.38;;;;;;;;;;12916322;22;20407;-82
2024/01/16 23:32:18;;;;;;;24.57;14.87;;;;;;;;;;12915271;22;20399;-83
2024/01/16 23:37:23;;;;;;;26.05;14.43;;;;;;;;;;12915697;22;20372;-82
2024/01/16 23:42:29;;;;;;;23.83;14.02;;;;;;;;;;12914725;22;20419;-82
2024/01/16 23:47:31;;;;;;;23.63;14.43;;;;;;;;;;12915795;22;20444;-83
2024/01/16 23:52:34;;;;;;;20.65;12.77;;;;;;;;;;12915317;22;20378;-83
2024/01/16 23:57:37;;;;;;;24.50;14.18;;;;;;;;;;12914688;22;20382;-83
